Detall de PIREP

Printer-friendly versionPDF version

[2012/06/02 21:34:00]
Flight IATA:CT3409
Pilot Number:026
Company ICAO:CAT
Aircraft Type:DC85/A
PAX:132
Departing Airport: LSGG
Destination Airport: LEBL
Alternate Airport:LEGE
Online: VATSIM
Route:BALSI UN852 DIVKO UN975 NILDU BISBA
Flight Level:F290
No Slew and time accel
No pause
Crash detect
Detect pilot in Cockpit between each 30 and 45 minutes
21:34 Zero fuel Weight: 179011 Lbs, Fuel Weight: 25002 Lbs
21:34 VATSIM:LSGG 022050Z 26008KT 210V300 9999 -SHRA SCT060 SCT090 BKN120 21/15 Q1013 TEMPO SHRA FEW050CB
21:34 VATSIM:LEBL 022100Z VRB02KT 9999 FEW030 21/19 Q1015 NOSIG
21:34 VOICE CATALONIAN / IATA CT3409
21:39 Parking Brakes off
21:51 Take-off
21:51 Take off Weight: 202628 Lbs
21:51 Wind: 228º @ 008 Knots Heading: 225º
21:51 POS N46º 13´ 49´´ E006º 05´ 52´´
21:51 Gear Up: 169 Knots
21:51 Flaps:2 at 169 Knots
21:54 Flaps:1 at 166 Knots
21:55 Flaps:0 at 208Knots
22:04 TOC
22:04 Fuel Weight: 19842 Lb
22:06 Wind:309º@003 Knots Heading: 194º Ground Speed: 480 Knots Altitude 29015 ft
22:21 Wind:139º@023 Knots Heading: 214º Ground Speed: 458 Knots Altitude 29025 ft
22:25 TOD
22:25 Fuel Weight: 14356 Lb
22:36 Wind:197º@008 Knots Heading: 234º Ground Speed: 392 Knots Altitude 13264 ft
22:46 Gear Down: 237 Knots
22:47 Flaps:1 at 164 Knots
22:48 Flaps:2 at 176 Knots
22:48 Flaps:3 at 161 Knots
22:49 Flaps:4 at 147 Knots
22:49 Flaps:5 at 141 Knots
22:50 TouchDown:Rate -209 ft/min Speed: 127 Knots
22:50 VATSIM:LEBL 022230Z 22003KT 160V280 9999 FEW030 21/19 Q1014 NOSIG
22:50 Land
22:50 Wind:246º@003 Knots
22:50 Heading: 245º
22:50 Flight Duration: 00:59
22:50 Landing Weight: 190261 Lbs
22:50 POS N41º 17´ 57´´ E002º 05´ 06´´
22:55 Parking brakes on
22:55 Block to Block Duration: 01:16
22:55 Final Fuel: 10250 Lbls
22:55 Spent Fuel: 14752 Lbls
22:55 Flight Length: 365 NM
22:55 TOD Land Length: 112 NM

Exportar CSV

Powered by Drupal - Modified by Danger4k